Current | Forecast
Updated: 1:55 AM CEST on June 21, 2018
Observed at Kleine Brogel, Belgium
Temperature 18°C
Humidity 77%
Dew Point 14°C
Wind SW at 6 km/h
Pressure 1017 hPa (Steady)
Conditions Clear
Visibility -
UV N/A
Clouds
Yesterday's Maximum 28°C
Yesterday's Minimum 16°C approx.
Yesterday's Cooling Degree Days 7 approx.
Sunrise5:22 AM CEST
Sunset9:57 PM CEST
Moon Rise2:41 PM CEST
Moon Set2:19 AM CEST
Moon PhaseMoon Phase
First Quarter
Raw METARMETAR EBBL 202355Z AUTO 23003KT //// NCD 18/14 Q1017


Monday
. High: 62° F.
Tuesday
. High: 66° F.
Wednesday
. High: 71° F.
Thursday
. High: 60° F.
Friday
. High: 62° F.
Saturday
. High: 73° F.
Sunday
. High: 64° F.
Monday
. High: 69° F.

Units: English | Metric

Find the Weather for any City, State or Zipcode, or Country:

U.S. State List | Severe Weather | Tropical Storms | Ski Conditions
United States | Canada | Central America | South America | Asia | Europe | Australia | Africa | Islands

Weather Underground

© Copyright 2018
The Weather Company, LLC